sensor_id;sensor_type;location;lat;lon;timestamp;P1;durP1;ratioP1;P2;durP2;ratioP2
55489;SDS011;44029;52.956;4.772;2022-08-14T00:02:13;4.93;;;2.65;;
55489;SDS011;44029;52.956;4.772;2022-08-14T00:04:38;4.53;;;3.15;;
55489;SDS011;44029;52.956;4.772;2022-08-14T00:07:04;5.10;;;3.90;;
55489;SDS011;44029;52.956;4.772;2022-08-14T00:09:30;5.88;;;3.03;;
55489;SDS011;44029;52.956;4.772;2022-08-14T00:11:55;4.70;;;3.67;;
55489;SDS011;44029;52.956;4.772;2022-08-14T00:14:21;8.20;;;3.28;;
55489;SDS011;44029;52.956;4.772;2022-08-14T00:16:47;4.47;;;3.65;;
55489;SDS011;44029;52.956;4.772;2022-08-14T00:19:12;5.40;;;3.85;;
55489;SDS011;44029;52.956;4.772;2022-08-14T00:21:38;6.13;;;4.20;;
55489;SDS011;44029;52.956;4.772;2022-08-14T00:24:03;8.63;;;4.00;;
55489;SDS011;44029;52.956;4.772;2022-08-14T00:26:29;11.32;;;3.50;;
55489;SDS011;44029;52.956;4.772;2022-08-14T00:28:55;5.45;;;3.67;;
55489;SDS011;44029;52.956;4.772;2022-08-14T00:31:21;5.78;;;3.70;;
55489;SDS011;44029;52.956;4.772;2022-08-14T00:33:47;5.82;;;3.83;;
55489;SDS011;44029;52.956;4.772;2022-08-14T00:36:12;6.70;;;4.13;;
55489;SDS011;44029;52.956;4.772;2022-08-14T00:38:38;7.57;;;3.85;;
55489;SDS011;44029;52.956;4.772;2022-08-14T00:41:04;7.00;;;4.20;;
55489;SDS011;44029;52.956;4.772;2022-08-14T00:43:31;5.05;;;4.05;;
55489;SDS011;44029;52.956;4.772;2022-08-14T00:46:00;7.15;;;3.85;;
55489;SDS011;44029;52.956;4.772;2022-08-14T00:48:30;9.75;;;7.85;;
55489;SDS011;44029;52.956;4.772;2022-08-14T00:50:55;8.60;;;4.25;;
55489;SDS011;44029;52.956;4.772;2022-08-14T00:53:21;8.70;;;4.35;;
55489;SDS011;44029;52.956;4.772;2022-08-14T00:55:47;6.50;;;4.28;;
55489;SDS011;44029;52.956;4.772;2022-08-14T00:58:14;5.30;;;4.22;;
55489;SDS011;44029;52.956;4.772;2022-08-14T01:00:56;5.30;;;4.40;;
55489;SDS011;44029;52.956;4.772;2022-08-14T01:03:26;7.82;;;4.80;;
55489;SDS011;44029;52.956;4.772;2022-08-14T01:05:56;6.13;;;4.40;;
55489;SDS011;44029;52.956;4.772;2022-08-14T01:08:24;6.18;;;4.45;;
55489;SDS011;44029;52.956;4.772;2022-08-14T01:10:52;7.28;;;4.60;;
55489;SDS011;44029;52.956;4.772;2022-08-14T01:13:22;6.28;;;4.57;;
55489;SDS011;44029;52.956;4.772;2022-08-14T01:15:55;7.70;;;5.07;;
55489;SDS011;44029;52.956;4.772;2022-08-14T01:18:22;12.05;;;4.63;;
55489;SDS011;44029;52.956;4.772;2022-08-14T01:21:07;6.80;;;5.00;;
55489;SDS011;44029;52.956;4.772;2022-08-14T01:23:41;6.07;;;4.75;;
55489;SDS011;44029;52.956;4.772;2022-08-14T01:26:09;8.40;;;4.95;;
55489;SDS011;44029;52.956;4.772;2022-08-14T01:28:36;7.68;;;4.85;;
55489;SDS011;44029;52.956;4.772;2022-08-14T01:31:07;9.73;;;5.47;;
55489;SDS011;44029;52.956;4.772;2022-08-14T01:33:39;7.60;;;5.25;;
55489;SDS011;44029;52.956;4.772;2022-08-14T01:36:09;7.32;;;5.10;;
55489;SDS011;44029;52.956;4.772;2022-08-14T01:38:37;8.38;;;5.32;;
55489;SDS011;44029;52.956;4.772;2022-08-14T01:41:05;9.65;;;6.00;;
55489;SDS011;44029;52.956;4.772;2022-08-14T01:46:14;6.88;;;5.35;;
55489;SDS011;44029;52.956;4.772;2022-08-14T01:48:41;7.35;;;5.22;;
55489;SDS011;44029;52.956;4.772;2022-08-14T01:51:08;9.30;;;6.07;;
55489;SDS011;44029;52.956;4.772;2022-08-14T01:53:34;9.35;;;5.72;;
55489;SDS011;44029;52.956;4.772;2022-08-14T01:56:03;8.52;;;5.10;;
55489;SDS011;44029;52.956;4.772;2022-08-14T01:58:29;7.03;;;5.80;;
55489;SDS011;44029;52.956;4.772;2022-08-14T02:00:55;10.70;;;5.82;;
55489;SDS011;44029;52.956;4.772;2022-08-14T02:03:23;6.97;;;5.40;;
55489;SDS011;44029;52.956;4.772;2022-08-14T02:05:50;10.55;;;6.40;;
55489;SDS011;44029;52.956;4.772;2022-08-14T02:08:15;9.32;;;6.18;;
55489;SDS011;44029;52.956;4.772;2022-08-14T02:10:41;8.95;;;6.03;;
55489;SDS011;44029;52.956;4.772;2022-08-14T02:13:07;8.27;;;5.60;;
55489;SDS011;44029;52.956;4.772;2022-08-14T02:15:34;9.82;;;6.10;;
55489;SDS011;44029;52.956;4.772;2022-08-14T02:18:00;9.63;;;6.25;;
55489;SDS011;44029;52.956;4.772;2022-08-14T02:20:28;10.75;;;6.38;;
55489;SDS011;44029;52.956;4.772;2022-08-14T02:22:57;9.27;;;7.00;;
55489;SDS011;44029;52.956;4.772;2022-08-14T02:25:23;10.18;;;6.43;;
55489;SDS011;44029;52.956;4.772;2022-08-14T02:27:49;8.85;;;6.47;;
55489;SDS011;44029;52.956;4.772;2022-08-14T02:30:15;10.73;;;7.03;;
55489;SDS011;44029;52.956;4.772;2022-08-14T02:32:40;8.80;;;6.50;;
55489;SDS011;44029;52.956;4.772;2022-08-14T02:35:07;14.90;;;6.53;;
55489;SDS011;44029;52.956;4.772;2022-08-14T02:37:41;12.02;;;6.82;;
55489;SDS011;44029;52.956;4.772;2022-08-14T02:40:06;12.75;;;6.40;;
55489;SDS011;44029;52.956;4.772;2022-08-14T02:42:33;12.20;;;6.97;;
55489;SDS011;44029;52.956;4.772;2022-08-14T02:44:58;8.98;;;6.68;;
55489;SDS011;44029;52.956;4.772;2022-08-14T02:47:24;7.50;;;6.38;;
55489;SDS011;44029;52.956;4.772;2022-08-14T02:49:50;8.40;;;6.40;;
55489;SDS011;44029;52.956;4.772;2022-08-14T02:52:15;11.63;;;6.57;;
55489;SDS011;44029;52.956;4.772;2022-08-14T02:54:41;9.63;;;7.00;;
55489;SDS011;44029;52.956;4.772;2022-08-14T02:57:06;11.13;;;6.80;;
55489;SDS011;44029;52.956;4.772;2022-08-14T02:59:33;9.45;;;6.43;;
55489;SDS011;44029;52.956;4.772;2022-08-14T03:02:00;7.13;;;6.43;;
55489;SDS011;44029;52.956;4.772;2022-08-14T03:04:26;8.63;;;6.95;;
55489;SDS011;44029;52.956;4.772;2022-08-14T03:06:53;7.72;;;6.18;;
55489;SDS011;44029;52.956;4.772;2022-08-14T03:09:19;11.50;;;7.80;;
55489;SDS011;44029;52.956;4.772;2022-08-14T03:11:45;10.93;;;7.57;;
55489;SDS011;44029;52.956;4.772;2022-08-14T03:14:10;8.63;;;7.20;;
55489;SDS011;44029;52.956;4.772;2022-08-14T03:16:37;9.20;;;7.70;;
55489;SDS011;44029;52.956;4.772;2022-08-14T03:19:04;10.40;;;8.10;;
55489;SDS011;44029;52.956;4.772;2022-08-14T03:21:31;12.98;;;7.70;;
55489;SDS011;44029;52.956;4.772;2022-08-14T03:23:57;9.20;;;6.90;;
55489;SDS011;44029;52.956;4.772;2022-08-14T03:26:36;8.05;;;7.03;;
55489;SDS011;44029;52.956;4.772;2022-08-14T03:29:04;12.25;;;7.47;;
55489;SDS011;44029;52.956;4.772;2022-08-14T03:31:30;15.68;;;7.60;;
55489;SDS011;44029;52.956;4.772;2022-08-14T03:33:56;11.32;;;7.65;;
55489;SDS011;44029;52.956;4.772;2022-08-14T03:36:22;10.60;;;7.95;;
55489;SDS011;44029;52.956;4.772;2022-08-14T03:38:49;9.45;;;8.02;;
55489;SDS011;44029;52.956;4.772;2022-08-14T03:41:22;9.30;;;7.15;;
55489;SDS011;44029;52.956;4.772;2022-08-14T03:43:51;11.02;;;7.35;;
55489;SDS011;44029;52.956;4.772;2022-08-14T03:46:19;10.05;;;7.90;;
55489;SDS011;44029;52.956;4.772;2022-08-14T03:48:45;10.93;;;7.40;;
55489;SDS011;44029;52.956;4.772;2022-08-14T03:51:11;9.98;;;7.60;;
55489;SDS011;44029;52.956;4.772;2022-08-14T03:53:38;11.02;;;8.68;;
55489;SDS011;44029;52.956;4.772;2022-08-14T03:56:07;11.77;;;8.27;;
55489;SDS011;44029;52.956;4.772;2022-08-14T03:58:37;12.70;;;8.50;;
55489;SDS011;44029;52.956;4.772;2022-08-14T04:01:06;11.35;;;8.38;;
55489;SDS011;44029;52.956;4.772;2022-08-14T04:03:33;10.73;;;7.88;;
55489;SDS011;44029;52.956;4.772;2022-08-14T04:05:59;12.52;;;8.02;;
55489;SDS011;44029;52.956;4.772;2022-08-14T04:08:24;13.23;;;8.40;;
55489;SDS011;44029;52.956;4.772;2022-08-14T04:10:50;12.63;;;8.65;;
55489;SDS011;44029;52.956;4.772;2022-08-14T04:13:15;13.15;;;7.88;;
55489;SDS011;44029;52.956;4.772;2022-08-14T04:15:42;10.05;;;8.02;;
55489;SDS011;44029;52.956;4.772;2022-08-14T04:18:11;9.52;;;7.88;;
55489;SDS011;44029;52.956;4.772;2022-08-14T04:20:38;9.70;;;7.38;;
55489;SDS011;44029;52.956;4.772;2022-08-14T04:23:05;11.70;;;7.70;;
55489;SDS011;44029;52.956;4.772;2022-08-14T04:25:32;10.93;;;7.57;;
55489;SDS011;44029;52.956;4.772;2022-08-14T04:28:01;14.65;;;7.93;;
55489;SDS011;44029;52.956;4.772;2022-08-14T04:30:29;8.95;;;7.05;;
55489;SDS011;44029;52.956;4.772;2022-08-14T04:32:56;10.63;;;7.32;;
55489;SDS011;44029;52.956;4.772;2022-08-14T04:35:22;11.88;;;7.28;;
55489;SDS011;44029;52.956;4.772;2022-08-14T04:37:48;9.52;;;7.35;;
55489;SDS011;44029;52.956;4.772;2022-08-14T04:40:31;8.00;;;6.95;;
55489;SDS011;44029;52.956;4.772;2022-08-14T04:43:15;8.45;;;7.40;;
55489;SDS011;44029;52.956;4.772;2022-08-14T04:45:59;9.13;;;7.40;;
55489;SDS011;44029;52.956;4.772;2022-08-14T04:48:26;9.88;;;7.13;;
55489;SDS011;44029;52.956;4.772;2022-08-14T04:50:52;9.93;;;7.13;;
55489;SDS011;44029;52.956;4.772;2022-08-14T04:53:20;8.85;;;7.50;;
55489;SDS011;44029;52.956;4.772;2022-08-14T04:55:50;9.60;;;6.97;;
55489;SDS011;44029;52.956;4.772;2022-08-14T04:58:17;9.43;;;7.78;;
55489;SDS011;44029;52.956;4.772;2022-08-14T05:00:45;9.43;;;7.13;;
55489;SDS011;44029;52.956;4.772;2022-08-14T05:03:24;8.80;;;7.07;;
55489;SDS011;44029;52.956;4.772;2022-08-14T05:05:55;10.85;;;7.22;;
55489;SDS011;44029;52.956;4.772;2022-08-14T05:08:23;7.85;;;7.05;;
55489;SDS011;44029;52.956;4.772;2022-08-14T05:10:51;12.48;;;7.68;;
55489;SDS011;44029;52.956;4.772;2022-08-14T05:13:19;8.30;;;7.30;;
55489;SDS011;44029;52.956;4.772;2022-08-14T05:15:47;8.93;;;6.80;;
55489;SDS011;44029;52.956;4.772;2022-08-14T05:18:15;11.13;;;7.63;;
55489;SDS011;44029;52.956;4.772;2022-08-14T05:20:43;8.27;;;7.30;;
55489;SDS011;44029;52.956;4.772;2022-08-14T05:23:14;8.95;;;6.80;;
55489;SDS011;44029;52.956;4.772;2022-08-14T05:25:42;9.77;;;7.00;;
55489;SDS011;44029;52.956;4.772;2022-08-14T05:28:19;9.20;;;6.78;;
55489;SDS011;44029;52.956;4.772;2022-08-14T05:30:56;14.98;;;8.00;;
55489;SDS011;44029;52.956;4.772;2022-08-14T05:33:24;7.80;;;6.85;;
55489;SDS011;44029;52.956;4.772;2022-08-14T05:35:52;8.07;;;6.90;;
55489;SDS011;44029;52.956;4.772;2022-08-14T05:38:25;7.22;;;6.53;;
55489;SDS011;44029;52.956;4.772;2022-08-14T05:40:53;11.27;;;7.50;;
55489;SDS011;44029;52.956;4.772;2022-08-14T05:43:18;9.55;;;6.78;;
55489;SDS011;44029;52.956;4.772;2022-08-14T05:45:43;8.80;;;6.88;;
55489;SDS011;44029;52.956;4.772;2022-08-14T05:48:12;10.80;;;6.78;;
55489;SDS011;44029;52.956;4.772;2022-08-14T05:50:39;9.02;;;6.63;;
55489;SDS011;44029;52.956;4.772;2022-08-14T05:53:04;8.98;;;7.30;;
55489;SDS011;44029;52.956;4.772;2022-08-14T05:55:29;10.45;;;7.20;;
55489;SDS011;44029;52.956;4.772;2022-08-14T05:57:57;10.43;;;7.63;;
55489;SDS011;44029;52.956;4.772;2022-08-14T06:00:31;8.15;;;7.18;;
55489;SDS011;44029;52.956;4.772;2022-08-14T06:03:00;9.38;;;7.20;;
55489;SDS011;44029;52.956;4.772;2022-08-14T06:05:27;12.43;;;7.50;;
55489;SDS011;44029;52.956;4.772;2022-08-14T06:07:53;9.20;;;7.55;;
55489;SDS011;44029;52.956;4.772;2022-08-14T06:10:18;8.05;;;7.15;;
55489;SDS011;44029;52.956;4.772;2022-08-14T06:12:44;12.07;;;7.13;;
55489;SDS011;44029;52.956;4.772;2022-08-14T06:15:09;10.43;;;7.88;;
55489;SDS011;44029;52.956;4.772;2022-08-14T06:17:45;8.93;;;6.95;;
55489;SDS011;44029;52.956;4.772;2022-08-14T06:20:16;9.43;;;7.82;;
55489;SDS011;44029;52.956;4.772;2022-08-14T06:22:43;10.18;;;7.38;;
55489;SDS011;44029;52.956;4.772;2022-08-14T06:25:11;10.00;;;7.47;;
55489;SDS011;44029;52.956;4.772;2022-08-14T06:27:38;12.02;;;7.47;;
55489;SDS011;44029;52.956;4.772;2022-08-14T06:30:08;9.95;;;7.78;;
55489;SDS011;44029;52.956;4.772;2022-08-14T06:32:36;10.77;;;7.35;;
55489;SDS011;44029;52.956;4.772;2022-08-14T06:35:02;8.45;;;7.30;;
55489;SDS011;44029;52.956;4.772;2022-08-14T06:40:10;10.60;;;7.57;;
55489;SDS011;44029;52.956;4.772;2022-08-14T06:42:37;9.88;;;7.50;;
55489;SDS011;44029;52.956;4.772;2022-08-14T06:45:03;8.43;;;7.53;;
55489;SDS011;44029;52.956;4.772;2022-08-14T06:47:32;10.48;;;7.45;;
55489;SDS011;44029;52.956;4.772;2022-08-14T06:49:59;8.43;;;7.53;;
55489;SDS011;44029;52.956;4.772;2022-08-14T06:52:24;9.35;;;7.63;;
55489;SDS011;44029;52.956;4.772;2022-08-14T06:54:50;12.95;;;7.07;;
55489;SDS011;44029;52.956;4.772;2022-08-14T06:57:15;8.50;;;7.45;;
55489;SDS011;44029;52.956;4.772;2022-08-14T06:59:41;10.25;;;7.32;;
55489;SDS011;44029;52.956;4.772;2022-08-14T07:02:06;7.97;;;7.18;;
55489;SDS011;44029;52.956;4.772;2022-08-14T07:04:50;10.52;;;7.35;;
55489;SDS011;44029;52.956;4.772;2022-08-14T07:07:35;9.00;;;7.30;;
55489;SDS011;44029;52.956;4.772;2022-08-14T07:10:01;9.63;;;7.82;;
55489;SDS011;44029;52.956;4.772;2022-08-14T07:12:28;12.48;;;7.57;;
55489;SDS011;44029;52.956;4.772;2022-08-14T07:14:54;8.32;;;6.93;;
55489;SDS011;44029;52.956;4.772;2022-08-14T07:17:19;10.93;;;7.30;;
55489;SDS011;44029;52.956;4.772;2022-08-14T07:19:44;8.73;;;7.68;;
55489;SDS011;44029;52.956;4.772;2022-08-14T07:22:10;8.55;;;7.18;;
55489;SDS011;44029;52.956;4.772;2022-08-14T07:24:35;9.30;;;8.10;;
55489;SDS011;44029;52.956;4.772;2022-08-14T07:27:00;14.15;;;7.80;;
55489;SDS011;44029;52.956;4.772;2022-08-14T07:29:26;10.90;;;7.80;;
55489;SDS011;44029;52.956;4.772;2022-08-14T07:31:51;8.35;;;7.35;;
55489;SDS011;44029;52.956;4.772;2022-08-14T07:34:17;10.82;;;8.05;;
55489;SDS011;44029;52.956;4.772;2022-08-14T07:36:42;10.75;;;8.07;;
55489;SDS011;44029;52.956;4.772;2022-08-14T07:39:08;10.02;;;7.88;;
55489;SDS011;44029;52.956;4.772;2022-08-14T07:41:33;10.32;;;7.68;;
55489;SDS011;44029;52.956;4.772;2022-08-14T07:43:58;10.93;;;7.43;;
55489;SDS011;44029;52.956;4.772;2022-08-14T07:46:24;11.95;;;7.65;;
55489;SDS011;44029;52.956;4.772;2022-08-14T07:48:49;9.88;;;7.72;;
55489;SDS011;44029;52.956;4.772;2022-08-14T07:51:14;15.07;;;9.73;;
55489;SDS011;44029;52.956;4.772;2022-08-14T07:53:40;12.30;;;8.20;;
55489;SDS011;44029;52.956;4.772;2022-08-14T07:56:05;9.40;;;7.85;;
55489;SDS011;44029;52.956;4.772;2022-08-14T07:58:31;9.10;;;7.45;;
55489;SDS011;44029;52.956;4.772;2022-08-14T08:00:57;8.20;;;7.28;;
55489;SDS011;44029;52.956;4.772;2022-08-14T08:03:24;10.00;;;7.18;;
55489;SDS011;44029;52.956;4.772;2022-08-14T08:05:51;11.23;;;7.60;;
55489;SDS011;44029;52.956;4.772;2022-08-14T08:08:17;7.35;;;6.65;;
55489;SDS011;44029;52.956;4.772;2022-08-14T08:10:44;7.18;;;6.47;;
55489;SDS011;44029;52.956;4.772;2022-08-14T08:13:14;7.70;;;6.90;;
55489;SDS011;44029;52.956;4.772;2022-08-14T08:15:42;10.45;;;7.03;;
55489;SDS011;44029;52.956;4.772;2022-08-14T08:18:11;8.75;;;6.68;;
55489;SDS011;44029;52.956;4.772;2022-08-14T08:20:42;7.70;;;6.22;;
55489;SDS011;44029;52.956;4.772;2022-08-14T08:23:12;7.20;;;6.50;;
55489;SDS011;44029;52.956;4.772;2022-08-14T08:25:41;14.23;;;7.32;;
55489;SDS011;44029;52.956;4.772;2022-08-14T08:28:11;12.20;;;7.57;;
55489;SDS011;44029;52.956;4.772;2022-08-14T08:30:46;11.07;;;7.78;;
55489;SDS011;44029;52.956;4.772;2022-08-14T08:33:13;11.02;;;7.50;;
55489;SDS011;44029;52.956;4.772;2022-08-14T08:35:40;7.95;;;7.15;;
55489;SDS011;44029;52.956;4.772;2022-08-14T08:38:08;10.00;;;7.25;;
55489;SDS011;44029;52.956;4.772;2022-08-14T08:40:36;9.77;;;6.97;;
55489;SDS011;44029;52.956;4.772;2022-08-14T08:43:05;14.05;;;7.05;;
55489;SDS011;44029;52.956;4.772;2022-08-14T08:45:32;11.85;;;7.18;;
55489;SDS011;44029;52.956;4.772;2022-08-14T08:47:59;10.02;;;7.00;;
55489;SDS011;44029;52.956;4.772;2022-08-14T08:50:27;9.25;;;7.35;;
55489;SDS011;44029;52.956;4.772;2022-08-14T08:52:59;7.82;;;6.72;;
55489;SDS011;44029;52.956;4.772;2022-08-14T08:55:27;8.75;;;7.80;;
55489;SDS011;44029;52.956;4.772;2022-08-14T08:57:59;8.43;;;7.15;;
55489;SDS011;44029;52.956;4.772;2022-08-14T09:00:29;10.63;;;7.25;;
55489;SDS011;44029;52.956;4.772;2022-08-14T09:03:02;10.23;;;6.97;;
55489;SDS011;44029;52.956;4.772;2022-08-14T09:05:33;11.45;;;7.18;;
55489;SDS011;44029;52.956;4.772;2022-08-14T09:08:18;10.95;;;7.25;;
55489;SDS011;44029;52.956;4.772;2022-08-14T09:10:44;7.80;;;7.05;;
55489;SDS011;44029;52.956;4.772;2022-08-14T09:13:10;8.60;;;6.53;;
55489;SDS011;44029;52.956;4.772;2022-08-14T09:15:41;7.70;;;6.90;;
55489;SDS011;44029;52.956;4.772;2022-08-14T09:18:09;7.68;;;6.65;;
55489;SDS011;44029;52.956;4.772;2022-08-14T09:20:37;8.32;;;7.15;;
55489;SDS011;44029;52.956;4.772;2022-08-14T09:23:04;9.77;;;7.38;;
55489;SDS011;44029;52.956;4.772;2022-08-14T09:25:31;12.32;;;7.72;;
55489;SDS011;44029;52.956;4.772;2022-08-14T09:27:57;7.22;;;6.53;;
55489;SDS011;44029;52.956;4.772;2022-08-14T09:30:23;9.93;;;6.90;;
55489;SDS011;44029;52.956;4.772;2022-08-14T09:36:12;8.95;;;7.20;;
55489;SDS011;44029;52.956;4.772;2022-08-14T09:38:21;13.15;;;6.60;;
55489;SDS011;44029;52.956;4.772;2022-08-14T09:41:46;8.40;;;7.15;;
55489;SDS011;44029;52.956;4.772;2022-08-14T09:47:03;8.15;;;7.28;;
55489;SDS011;44029;52.956;4.772;2022-08-14T09:49:32;16.02;;;7.15;;
55489;SDS011;44029;52.956;4.772;2022-08-14T09:52:21;9.48;;;6.82;;
55489;SDS011;44029;52.956;4.772;2022-08-14T09:54:48;7.72;;;6.47;;
55489;SDS011;44029;52.956;4.772;2022-08-14T09:57:23;8.02;;;6.53;;
55489;SDS011;44029;52.956;4.772;2022-08-14T09:59:50;7.68;;;6.30;;
55489;SDS011;44029;52.956;4.772;2022-08-14T10:02:20;10.23;;;6.15;;
55489;SDS011;44029;52.956;4.772;2022-08-14T10:04:59;9.63;;;6.38;;
55489;SDS011;44029;52.956;4.772;2022-08-14T10:07:30;11.63;;;6.40;;
55489;SDS011;44029;52.956;4.772;2022-08-14T10:10:00;14.13;;;6.75;;
55489;SDS011;44029;52.956;4.772;2022-08-14T10:12:40;14.00;;;6.93;;
55489;SDS011;44029;52.956;4.772;2022-08-14T10:15:16;9.02;;;5.88;;
55489;SDS011;44029;52.956;4.772;2022-08-14T10:17:43;7.20;;;5.78;;
55489;SDS011;44029;52.956;4.772;2022-08-14T10:20:10;7.22;;;5.65;;
55489;SDS011;44029;52.956;4.772;2022-08-14T10:22:37;9.10;;;5.85;;
55489;SDS011;44029;52.956;4.772;2022-08-14T10:25:12;8.32;;;6.18;;
55489;SDS011;44029;52.956;4.772;2022-08-14T10:27:39;9.70;;;5.45;;
55489;SDS011;44029;52.956;4.772;2022-08-14T10:30:11;8.88;;;6.28;;
55489;SDS011;44029;52.956;4.772;2022-08-14T10:32:45;9.05;;;6.45;;
55489;SDS011;44029;52.956;4.772;2022-08-14T10:35:13;6.35;;;5.70;;
55489;SDS011;44029;52.956;4.772;2022-08-14T10:37:41;14.00;;;5.60;;
55489;SDS011;44029;52.956;4.772;2022-08-14T10:40:13;7.30;;;5.78;;
55489;SDS011;44029;52.956;4.772;2022-08-14T10:42:40;6.60;;;5.80;;
55489;SDS011;44029;52.956;4.772;2022-08-14T10:45:17;7.53;;;5.90;;
55489;SDS011;44029;52.956;4.772;2022-08-14T10:47:45;7.80;;;6.00;;
55489;SDS011;44029;52.956;4.772;2022-08-14T10:50:10;6.05;;;5.45;;
55489;SDS011;44029;52.956;4.772;2022-08-14T10:52:38;9.23;;;6.10;;
55489;SDS011;44029;52.956;4.772;2022-08-14T10:55:10;10.00;;;5.75;;
55489;SDS011;44029;52.956;4.772;2022-08-14T11:00:21;11.18;;;5.68;;
55489;SDS011;44029;52.956;4.772;2022-08-14T11:02:56;6.35;;;5.55;;
55489;SDS011;44029;52.956;4.772;2022-08-14T11:05:44;9.45;;;5.32;;
55489;SDS011;44029;52.956;4.772;2022-08-14T11:08:12;9.68;;;5.72;;
55489;SDS011;44029;52.956;4.772;2022-08-14T11:13:14;8.60;;;6.18;;
55489;SDS011;44029;52.956;4.772;2022-08-14T11:15:45;7.03;;;5.88;;
55489;SDS011;44029;52.956;4.772;2022-08-14T11:18:12;9.50;;;5.82;;
55489;SDS011;44029;52.956;4.772;2022-08-14T11:20:39;7.10;;;6.30;;
55489;SDS011;44029;52.956;4.772;2022-08-14T11:23:12;10.02;;;6.25;;
55489;SDS011;44029;52.956;4.772;2022-08-14T11:25:39;8.68;;;7.38;;
55489;SDS011;44029;52.956;4.772;2022-08-14T11:28:11;9.45;;;5.70;;
55489;SDS011;44029;52.956;4.772;2022-08-14T11:30:38;6.82;;;6.13;;
55489;SDS011;44029;52.956;4.772;2022-08-14T11:33:06;10.95;;;6.40;;
55489;SDS011;44029;52.956;4.772;2022-08-14T11:35:32;8.98;;;6.47;;
55489;SDS011;44029;52.956;4.772;2022-08-14T11:37:59;8.65;;;7.78;;
55489;SDS011;44029;52.956;4.772;2022-08-14T11:40:27;7.68;;;6.88;;
55489;SDS011;44029;52.956;4.772;2022-08-14T11:42:54;11.55;;;6.00;;
55489;SDS011;44029;52.956;4.772;2022-08-14T11:45:21;7.35;;;5.78;;
55489;SDS011;44029;52.956;4.772;2022-08-14T11:47:48;9.80;;;6.88;;
55489;SDS011;44029;52.956;4.772;2022-08-14T11:52:47;10.20;;;5.97;;
55489;SDS011;44029;52.956;4.772;2022-08-14T11:55:13;6.93;;;5.82;;
55489;SDS011;44029;52.956;4.772;2022-08-14T11:57:40;6.88;;;6.18;;
55489;SDS011;44029;52.956;4.772;2022-08-14T12:00:08;12.80;;;6.25;;
55489;SDS011;44029;52.956;4.772;2022-08-14T12:02:36;7.68;;;5.97;;
55489;SDS011;44029;52.956;4.772;2022-08-14T12:05:02;7.43;;;5.75;;
55489;SDS011;44029;52.956;4.772;2022-08-14T12:07:28;8.82;;;6.15;;
55489;SDS011;44029;52.956;4.772;2022-08-14T12:09:54;10.55;;;6.20;;
55489;SDS011;44029;52.956;4.772;2022-08-14T12:12:22;6.75;;;6.05;;
55489;SDS011;44029;52.956;4.772;2022-08-14T12:14:52;11.10;;;6.43;;
55489;SDS011;44029;52.956;4.772;2022-08-14T12:17:24;7.03;;;6.25;;
55489;SDS011;44029;52.956;4.772;2022-08-14T12:19:55;6.28;;;5.50;;
55489;SDS011;44029;52.956;4.772;2022-08-14T12:22:37;8.00;;;6.00;;
55489;SDS011;44029;52.956;4.772;2022-08-14T12:27:34;7.90;;;5.60;;
55489;SDS011;44029;52.956;4.772;2022-08-14T12:30:08;7.85;;;5.70;;
55489;SDS011;44029;52.956;4.772;2022-08-14T12:32:40;8.95;;;6.10;;
55489;SDS011;44029;52.956;4.772;2022-08-14T12:35:08;9.27;;;5.80;;
55489;SDS011;44029;52.956;4.772;2022-08-14T12:37:34;7.40;;;5.63;;
55489;SDS011;44029;52.956;4.772;2022-08-14T12:40:35;7.45;;;5.90;;
55489;SDS011;44029;52.956;4.772;2022-08-14T12:42:58;7.38;;;5.82;;
55489;SDS011;44029;52.956;4.772;2022-08-14T12:45:29;7.63;;;5.55;;
55489;SDS011;44029;52.956;4.772;2022-08-14T12:48:01;11.52;;;7.80;;
55489;SDS011;44029;52.956;4.772;2022-08-14T12:50:33;6.20;;;5.60;;
55489;SDS011;44029;52.956;4.772;2022-08-14T12:53:03;9.00;;;5.60;;
55489;SDS011;44029;52.956;4.772;2022-08-14T12:55:28;7.05;;;5.38;;
55489;SDS011;44029;52.956;4.772;2022-08-14T12:57:59;8.43;;;5.40;;
55489;SDS011;44029;52.956;4.772;2022-08-14T13:00:27;9.13;;;5.20;;
55489;SDS011;44029;52.956;4.772;2022-08-14T13:02:53;7.50;;;5.63;;
55489;SDS011;44029;52.956;4.772;2022-08-14T13:05:20;7.45;;;5.07;;
55489;SDS011;44029;52.956;4.772;2022-08-14T13:07:51;7.57;;;4.95;;
55489;SDS011;44029;52.956;4.772;2022-08-14T13:10:17;7.88;;;4.53;;
55489;SDS011;44029;52.956;4.772;2022-08-14T13:12:45;5.65;;;5.05;;
55489;SDS011;44029;52.956;4.772;2022-08-14T13:15:11;5.55;;;4.90;;
55489;SDS011;44029;52.956;4.772;2022-08-14T13:17:42;6.43;;;5.00;;
55489;SDS011;44029;52.956;4.772;2022-08-14T13:20:08;5.63;;;5.07;;
55489;SDS011;44029;52.956;4.772;2022-08-14T13:22:38;6.43;;;4.53;;
55489;SDS011;44029;52.956;4.772;2022-08-14T13:25:13;5.00;;;4.50;;
55489;SDS011;44029;52.956;4.772;2022-08-14T13:27:46;5.95;;;4.72;;
55489;SDS011;44029;52.956;4.772;2022-08-14T13:30:13;9.15;;;5.63;;
55489;SDS011;44029;52.956;4.772;2022-08-14T13:32:39;4.57;;;4.13;;
55489;SDS011;44029;52.956;4.772;2022-08-14T13:35:08;8.25;;;6.20;;
55489;SDS011;44029;52.956;4.772;2022-08-14T13:37:35;6.10;;;4.15;;
55489;SDS011;44029;52.956;4.772;2022-08-14T13:40:01;5.47;;;4.50;;
55489;SDS011;44029;52.956;4.772;2022-08-14T13:42:28;7.32;;;4.40;;
55489;SDS011;44029;52.956;4.772;2022-08-14T13:44:54;7.85;;;4.85;;
55489;SDS011;44029;52.956;4.772;2022-08-14T13:47:21;5.72;;;5.00;;
55489;SDS011;44029;52.956;4.772;2022-08-14T13:49:49;9.32;;;4.40;;
55489;SDS011;44029;52.956;4.772;2022-08-14T13:52:17;8.30;;;4.40;;
55489;SDS011;44029;52.956;4.772;2022-08-14T13:54:44;11.65;;;4.57;;
55489;SDS011;44029;52.956;4.772;2022-08-14T13:57:11;8.73;;;4.50;;
55489;SDS011;44029;52.956;4.772;2022-08-14T13:59:42;7.50;;;4.63;;
55489;SDS011;44029;52.956;4.772;2022-08-14T14:02:13;6.85;;;5.90;;
55489;SDS011;44029;52.956;4.772;2022-08-14T14:04:43;9.85;;;5.55;;
55489;SDS011;44029;52.956;4.772;2022-08-14T14:07:13;6.10;;;4.70;;
55489;SDS011;44029;52.956;4.772;2022-08-14T14:09:42;9.98;;;5.43;;
55489;SDS011;44029;52.956;4.772;2022-08-14T14:12:10;7.90;;;5.28;;
55489;SDS011;44029;52.956;4.772;2022-08-14T14:14:36;10.18;;;7.97;;
55489;SDS011;44029;52.956;4.772;2022-08-14T14:17:03;6.68;;;5.38;;
55489;SDS011;44029;52.956;4.772;2022-08-14T14:19:30;5.30;;;4.80;;
55489;SDS011;44029;52.956;4.772;2022-08-14T14:21:59;9.77;;;6.15;;
55489;SDS011;44029;52.956;4.772;2022-08-14T14:24:29;6.20;;;5.40;;
55489;SDS011;44029;52.956;4.772;2022-08-14T14:26:56;6.07;;;5.20;;
55489;SDS011;44029;52.956;4.772;2022-08-14T14:29:24;6.32;;;5.43;;
55489;SDS011;44029;52.956;4.772;2022-08-14T14:31:50;6.70;;;5.72;;
55489;SDS011;44029;52.956;4.772;2022-08-14T14:34:16;7.57;;;5.57;;
55489;SDS011;44029;52.956;4.772;2022-08-14T14:36:46;9.15;;;6.93;;
55489;SDS011;44029;52.956;4.772;2022-08-14T14:39:14;8.88;;;6.95;;
55489;SDS011;44029;52.956;4.772;2022-08-14T14:41:40;9.95;;;6.75;;
55489;SDS011;44029;52.956;4.772;2022-08-14T14:44:10;7.38;;;6.65;;
55489;SDS011;44029;52.956;4.772;2022-08-14T14:46:37;8.35;;;7.55;;
55489;SDS011;44029;52.956;4.772;2022-08-14T14:49:05;8.38;;;7.07;;
55489;SDS011;44029;52.956;4.772;2022-08-14T14:51:32;11.25;;;7.03;;
55489;SDS011;44029;52.956;4.772;2022-08-14T14:53:58;12.43;;;8.30;;
55489;SDS011;44029;52.956;4.772;2022-08-14T14:56:25;10.43;;;7.70;;
55489;SDS011;44029;52.956;4.772;2022-08-14T14:58:53;10.38;;;7.25;;
55489;SDS011;44029;52.956;4.772;2022-08-14T15:01:18;11.45;;;7.80;;
55489;SDS011;44029;52.956;4.772;2022-08-14T15:03:47;9.73;;;7.88;;
55489;SDS011;44029;52.956;4.772;2022-08-14T15:06:13;9.50;;;8.15;;
55489;SDS011;44029;52.956;4.772;2022-08-14T15:08:39;12.00;;;7.32;;
55489;SDS011;44029;52.956;4.772;2022-08-14T15:11:04;9.77;;;8.18;;
55489;SDS011;44029;52.956;4.772;2022-08-14T15:13:30;10.05;;;7.13;;